Seabourn Spirit — C6FR4 — position and weather

sailwx.info

Track history (hours):
 
Tides and Currents Weather Stations Pressure Air Temp Water Temp Dewpoint Dewpoint Depression Visibility Wind Speed Wind Dir Waves Ship Positions

Seabourn Spirit

Operator: Cunard Seabourn

Last reported at 2017-Nov-04 21:13 UTC. Time now 2017-Nov-19 14:15 UTC.
Position N 38°16' W 009°54'.
Warning: this ship's position is 14 days out of date.

Length 133 m; draft 5.7 m.

Type: Ship. MMSI: 311083000.

Date/timePositionNaut miles runAvg speedWind from/ knotsBaromVisibWave heightAir tempDewpointWater temp
2017-Nov-04 21:13N 38°16' W 009°54'210.9
2017-Nov-04 21:00N 38°17' W 009°52'510.7
2017-Nov-04 20:30N 38°21' W 009°46'510.7
2017-Nov-04 20:01N 38°24' W 009°41'510.3
2017-Nov-04 19:30N 38°28' W 009°36'510.0
2017-Nov-04 19:00N 38°31' W 009°32'510.3
2017-Nov-04 18:30N 38°34' W 009°27'510.5
2017-Nov-04 18:01N 38°38' W 009°22'612.4
2017-Nov-04 17:30N 38°41' W 009°15'611.5
2017-Nov-04 17:00N 38°42' W 009°08'0 0.7
2017-Nov-04 16:25N 38°43' W 009°07'0 0.0
2017-Nov-04 16:00N 38°43' W 009°07'0 0.0
2017-Nov-04 15:30N 38°43' W 009°07'0 0.0
2017-Nov-04 15:00N 38°43' W 009°07'0 0.0
2017-Nov-04 14:30N 38°43' W 009°07'0 0.0
2017-Nov-04 14:00N 38°43' W 009°07'0 0.0
2017-Nov-04 13:31N 38°43' W 009°07'0 0.0
2017-Nov-04 13:00N 38°43' W 009°07'0 0.0
2017-Nov-04 12:30N 38°43' W 009°07'0 0.0
2017-Nov-04 12:01N 38°43' W 009°07'0 0.0
2017-Nov-04 11:30N 38°43' W 009°07'0 0.0
2017-Nov-04 11:00N 38°43' W 009°07'0 0.0
2017-Nov-04 10:31N 38°43' W 009°07'0 0.0
2017-Nov-04 10:00N 38°43' W 009°07'0 0.0
2017-Nov-04 09:30N 38°43' W 009°07'0 0.0
2017-Nov-04 09:00N 38°43' W 009°07'0 0.0
2017-Nov-04 08:30N 38°43' W 009°07'0 0.0
2017-Nov-04 08:00N 38°43' W 009°07'0 0.0
2017-Nov-04 07:30N 38°43' W 009°07'0 0.0
2017-Nov-04 07:00N 38°43' W 009°07'0 0.4
2017-Nov-04 06:30N 38°43' W 009°07'0 0.6
2017-Nov-04 06:00N 38°43' W 009°07'4 7.9
2017-Nov-04 05:30N 38°41' W 009°12'4 7.8
2017-Nov-04 05:00N 38°41' W 009°17'612.1
2017-Nov-04 04:30N 38°37' W 009°23'612.8
2017-Nov-04 04:00N 38°31' W 009°24'713.6
2017-Nov-04 03:30N 38°24' W 009°24'713.8
2017-Nov-04 03:00N 38°17' W 009°25'713.4
2017-Nov-04 02:30N 38°10' W 009°24'713.4
2017-Nov-04 02:00N 38°04' W 009°24'713.4
2017-Nov-04 01:30N 37°57' W 009°23'713.5
2017-Nov-04 01:00N 37°50' W 009°23'713.2
2017-Nov-04 00:30N 37°44' W 009°22'813.4
2017-Nov-03 23:56N 37°36' W 009°22'51 7.8
2017-Nov-03 17:28N 37°01' W 008°36'8 1.6
2017-Nov-03 12:42N 37°08' W 008°32'0 0.0
2017-Nov-03 08:40N 37°08' W 008°32'0 0.0
2017-Nov-03 08:23N 37°08' W 008°32'3 3.9
2017-Nov-03 07:42N 37°05' W 008°31'211.3
2017-Nov-03 07:29N 37°04' W 008°29'5 9.2
2017-Nov-03 06:58N 37°02' W 008°24'  
2017-Oct-29 15:00N 37°11' W 000°43'199 9.6
2017-Oct-28 18:15N 39°21' E 002°29'311.4
2017-Oct-28 17:59N 39°24' E 002°31'611.5
2017-Oct-28 17:30N 39°28' E 002°35'511.0
2017-Oct-28 17:01N 39°33' E 002°39'1 1.3
2017-Oct-28 16:30N 39°33' E 002°38'0 0.0
2017-Oct-28 16:00N 39°33' E 002°38'0 0.0
2017-Oct-28 15:30N 39°33' E 002°38'0 0.0
2017-Oct-28 15:00N 39°33' E 002°38'0 0.0
2017-Oct-28 14:30N 39°33' E 002°38'0 0.0
2017-Oct-28 14:00N 39°33' E 002°38'0 0.0
2017-Oct-28 13:30N 39°33' E 002°38'0 0.0
2017-Oct-28 13:00N 39°33' E 002°38'0 0.0
2017-Oct-28 12:24N 39°33' E 002°38'0 0.0
2017-Oct-28 12:00N 39°33' E 002°38'0 0.0
2017-Oct-28 11:30N 39°33' E 002°38'0 0.0
2017-Oct-28 11:00N 39°33' E 002°38'0 0.0
2017-Oct-28 10:30N 39°33' E 002°38'0 0.0
2017-Oct-28 10:00N 39°33' E 002°38'0 0.0
2017-Oct-28 09:30N 39°33' E 002°38'0 0.0
2017-Oct-28 09:00N 39°33' E 002°38'0 0.0
2017-Oct-28 08:30N 39°33' E 002°38'0 0.0
2017-Oct-28 08:00N 39°33' E 002°38'0 0.0
2017-Oct-28 07:30N 39°33' E 002°38'0 0.0
2017-Oct-28 07:00N 39°33' E 002°38'0 0.0
2017-Oct-28 06:31N 39°33' E 002°38'1 1.9
2017-Oct-28 06:00N 39°33' E 002°39'4 8.8
2017-Oct-28 05:31N 39°29' E 002°35'4 8.2
2017-Oct-28 05:01N 39°26' E 002°32'510.2
2017-Oct-28 04:30N 39°27' E 002°25'202 4.0
2017-Oct-26 01:55N 42°42' E 003°36'5 8.9
2017-Oct-26 01:25N 42°44' E 003°42'6 9.0
2017-Oct-26 00:48N 42°46' E 003°49'4 9.1
2017-Oct-26 00:21N 42°48' E 003°54'3 9.2
2017-Oct-25 23:59N 42°49' E 003°58'5 9.2
2017-Oct-25 23:29N 42°51' E 004°04'5 9.2
2017-Oct-25 22:59N 42°53' E 004°09'5 9.0
2017-Oct-25 22:27N 42°55' E 004°15'4 8.9
2017-Oct-25 22:00N 42°56' E 004°20'4 8.9
2017-Oct-25 21:30N 42°58' E 004°26'  
Track history (hours):
 
Tides and Currents Weather Stations Pressure Air Temp Water Temp Dewpoint Dewpoint Depression Visibility Wind Speed Wind Dir Waves Ship Positions

Seabourn Spirit

Operator: Cunard Seabourn

Last reported at 2017-Nov-04 21:13 UTC. Time now 2017-Nov-19 14:15 UTC.
Position N 38°16' W 009°54'.
Warning: this ship's position is 14 days out of date.

Length 133 m; draft 5.7 m.

Type: Ship. MMSI: 311083000.

Date/timePositionNaut miles runAvg speedWind from/ knotsBaromVisibWave heightAir tempDewpointWater temp
2017-Nov-04 21:13N 38°16' W 009°54'210.9
2017-Nov-04 21:00N 38°17' W 009°52'510.7
2017-Nov-04 20:30N 38°21' W 009°46'510.7
2017-Nov-04 20:01N 38°24' W 009°41'510.3
2017-Nov-04 19:30N 38°28' W 009°36'510.0
2017-Nov-04 19:00N 38°31' W 009°32'510.3
2017-Nov-04 18:30N 38°34' W 009°27'510.5
2017-Nov-04 18:01N 38°38' W 009°22'612.4
2017-Nov-04 17:30N 38°41' W 009°15'611.5
2017-Nov-04 17:00N 38°42' W 009°08'0 0.7
2017-Nov-04 16:25N 38°43' W 009°07'0 0.0
2017-Nov-04 16:00N 38°43' W 009°07'0 0.0
2017-Nov-04 15:30N 38°43' W 009°07'0 0.0
2017-Nov-04 15:00N 38°43' W 009°07'0 0.0
2017-Nov-04 14:30N 38°43' W 009°07'0 0.0
2017-Nov-04 14:00N 38°43' W 009°07'0 0.0
2017-Nov-04 13:31N 38°43' W 009°07'0 0.0
2017-Nov-04 13:00N 38°43' W 009°07'0 0.0
2017-Nov-04 12:30N 38°43' W 009°07'0 0.0
2017-Nov-04 12:01N 38°43' W 009°07'0 0.0
2017-Nov-04 11:30N 38°43' W 009°07'0 0.0
2017-Nov-04 11:00N 38°43' W 009°07'0 0.0
2017-Nov-04 10:31N 38°43' W 009°07'0 0.0
2017-Nov-04 10:00N 38°43' W 009°07'0 0.0
2017-Nov-04 09:30N 38°43' W 009°07'0 0.0
2017-Nov-04 09:00N 38°43' W 009°07'0 0.0
2017-Nov-04 08:30N 38°43' W 009°07'0 0.0
2017-Nov-04 08:00N 38°43' W 009°07'0 0.0
2017-Nov-04 07:30N 38°43' W 009°07'0 0.0
2017-Nov-04 07:00N 38°43' W 009°07'0 0.4
2017-Nov-04 06:30N 38°43' W 009°07'0 0.6
2017-Nov-04 06:00N 38°43' W 009°07'4 7.9
2017-Nov-04 05:30N 38°41' W 009°12'4 7.8
2017-Nov-04 05:00N 38°41' W 009°17'612.1
2017-Nov-04 04:30N 38°37' W 009°23'612.8
2017-Nov-04 04:00N 38°31' W 009°24'713.6
2017-Nov-04 03:30N 38°24' W 009°24'713.8
2017-Nov-04 03:00N 38°17' W 009°25'713.4
2017-Nov-04 02:30N 38°10' W 009°24'713.4
2017-Nov-04 02:00N 38°04' W 009°24'713.4
2017-Nov-04 01:30N 37°57' W 009°23'713.5
2017-Nov-04 01:00N 37°50' W 009°23'713.2
2017-Nov-04 00:30N 37°44' W 009°22'813.4
2017-Nov-03 23:56N 37°36' W 009°22'51 7.8
2017-Nov-03 17:28N 37°01' W 008°36'8 1.6
2017-Nov-03 12:42N 37°08' W 008°32'0 0.0
2017-Nov-03 08:40N 37°08' W 008°32'0 0.0
2017-Nov-03 08:23N 37°08' W 008°32'3 3.9
2017-Nov-03 07:42N 37°05' W 008°31'211.3
2017-Nov-03 07:29N 37°04' W 008°29'5 9.2
2017-Nov-03 06:58N 37°02' W 008°24'  
2017-Oct-29 15:00N 37°11' W 000°43'199 9.6
2017-Oct-28 18:15N 39°21' E 002°29'311.4
2017-Oct-28 17:59N 39°24' E 002°31'611.5
2017-Oct-28 17:30N 39°28' E 002°35'511.0
2017-Oct-28 17:01N 39°33' E 002°39'1 1.3
2017-Oct-28 16:30N 39°33' E 002°38'0 0.0
2017-Oct-28 16:00N 39°33' E 002°38'0 0.0
2017-Oct-28 15:30N 39°33' E 002°38'0 0.0
2017-Oct-28 15:00N 39°33' E 002°38'0 0.0
2017-Oct-28 14:30N 39°33' E 002°38'0 0.0
2017-Oct-28 14:00N 39°33' E 002°38'0 0.0
2017-Oct-28 13:30N 39°33' E 002°38'0 0.0
2017-Oct-28 13:00N 39°33' E 002°38'0 0.0
2017-Oct-28 12:24N 39°33' E 002°38'0 0.0
2017-Oct-28 12:00N 39°33' E 002°38'0 0.0
2017-Oct-28 11:30N 39°33' E 002°38'0 0.0
2017-Oct-28 11:00N 39°33' E 002°38'0 0.0
2017-Oct-28 10:30N 39°33' E 002°38'0 0.0
2017-Oct-28 10:00N 39°33' E 002°38'0 0.0
2017-Oct-28 09:30N 39°33' E 002°38'0 0.0
2017-Oct-28 09:00N 39°33' E 002°38'0 0.0
2017-Oct-28 08:30N 39°33' E 002°38'0 0.0
2017-Oct-28 08:00N 39°33' E 002°38'0 0.0
2017-Oct-28 07:30N 39°33' E 002°38'0 0.0
2017-Oct-28 07:00N 39°33' E 002°38'0 0.0
2017-Oct-28 06:31N 39°33' E 002°38'1 1.9
2017-Oct-28 06:00N 39°33' E 002°39'4 8.8
2017-Oct-28 05:31N 39°29' E 002°35'4 8.2
2017-Oct-28 05:01N 39°26' E 002°32'510.2
2017-Oct-28 04:30N 39°27' E 002°25'202 4.0
2017-Oct-26 01:55N 42°42' E 003°36'5 8.9
2017-Oct-26 01:25N 42°44' E 003°42'6 9.0
2017-Oct-26 00:48N 42°46' E 003°49'4 9.1
2017-Oct-26 00:21N 42°48' E 003°54'3 9.2
2017-Oct-25 23:59N 42°49' E 003°58'5 9.2
2017-Oct-25 23:29N 42°51' E 004°04'5 9.2
2017-Oct-25 22:59N 42°53' E 004°09'5 9.0
2017-Oct-25 22:27N 42°55' E 004°15'4 8.9
2017-Oct-25 22:00N 42°56' E 004°20'4 8.9
2017-Oct-25 21:30N 42°58' E 004°26'  

Dump ship's entire track history